Time;durP1;ratioP1;P1;durP2;ratioP2;P2;SDS_P1;SDS_P2;PMS_P1;PMS_P2;Temp;Humidity;BMP_temperature;BMP_pressure;BME280_temperature;BME280_humidity;BME280_pressure;Samples;Min_cycle;Max_cycle;Signal;HPM_P1;HPM_P2
2022/09/25 00:00:10;;;;;;;3.60;2.03;;;;;;;;;;4982780;28;20705;-79
2022/09/25 00:02:36;;;;;;;2.97;1.90;;;;;;;;;;5017072;28;20058;-80
2022/09/25 00:05:01;;;;;;;3.10;1.90;;;;;;;;;;5002409;28;20155;-79
2022/09/25 00:07:27;;;;;;;3.88;2.35;;;;;;;;;;5002185;28;20033;-79
2022/09/25 00:09:52;;;;;;;3.05;1.67;;;;;;;;;;5018449;28;20036;-80
2022/09/25 00:12:17;;;;;;;3.38;2.08;;;;;;;;;;5018068;28;20391;-80
2022/09/25 00:14:43;;;;;;;2.95;1.58;;;;;;;;;;5018126;28;20360;-79
2022/09/25 00:17:08;;;;;;;3.83;2.33;;;;;;;;;;5018811;28;20048;-79
2022/09/25 00:19:49;;;;;;;3.88;2.50;;;;;;;;;;5001966;28;20039;-79
2022/09/25 00:22:16;;;;;;;4.78;3.08;;;;;;;;;;5020402;28;20068;-79
2022/09/25 00:24:41;;;;;;;6.50;3.90;;;;;;;;;;5001874;28;20480;-79
2022/09/25 00:27:07;;;;;;;5.85;3.88;;;;;;;;;;5001915;28;20025;-79
2022/09/25 00:29:35;;;;;;;5.85;4.18;;;;;;;;;;5002046;28;20487;-79
2022/09/25 00:32:01;;;;;;;5.38;3.50;;;;;;;;;;5001816;28;20025;-79
2022/09/25 00:34:26;;;;;;;6.72;3.67;;;;;;;;;;5001685;28;20036;-79
2022/09/25 00:36:51;;;;;;;5.22;3.50;;;;;;;;;;5001766;28;20124;-79
2022/09/25 00:39:17;;;;;;;4.72;3.60;;;;;;;;;;5017811;28;20415;-79
2022/09/25 00:41:42;;;;;;;5.78;3.30;;;;;;;;;;5001043;28;20395;-79
2022/09/25 00:44:55;;;;;;;4.85;2.78;;;;;;;;;;5001430;28;20033;-79
2022/09/25 00:47:41;;;;;;;5.32;3.30;;;;;;;;;;5038683;28;20098;-79
2022/09/25 00:50:23;;;;;;;5.70;2.85;;;;;;;;;;5021500;28;20029;-79
2022/09/25 00:52:51;;;;;;;4.70;2.90;;;;;;;;;;5006443;28;20142;-79
2022/09/25 00:55:18;;;;;;;4.00;2.50;;;;;;;;;;5007146;28;20025;-80
2022/09/25 00:57:45;;;;;;;4.40;2.50;;;;;;;;;;4998392;28;20120;-79
2022/09/25 01:00:11;;;;;;;4.47;2.63;;;;;;;;;;4982066;28;20036;-79
2022/09/25 01:02:40;;;;;;;5.20;2.85;;;;;;;;;;5008516;28;20037;-79
2022/09/25 01:05:09;;;;;;;4.28;2.63;;;;;;;;;;4998329;28;20082;-79
2022/09/25 01:07:36;;;;;;;5.00;2.75;;;;;;;;;;4997967;28;20036;-79
2022/09/25 01:10:02;;;;;;;4.25;2.58;;;;;;;;;;4997676;28;20033;-79
2022/09/25 01:12:28;;;;;;;6.78;2.97;;;;;;;;;;4981451;28;20435;-79
2022/09/25 01:14:54;;;;;;;5.18;2.72;;;;;;;;;;4997872;28;20037;-79
2022/09/25 01:17:34;;;;;;;4.10;2.42;;;;;;;;;;4998002;28;20155;-80
2022/09/25 01:20:37;;;;;;;4.25;2.83;;;;;;;;;;4998214;28;20033;-80
2022/09/25 01:23:24;;;;;;;3.80;2.22;;;;;;;;;;5013831;28;20452;-80
2022/09/25 01:26:12;;;;;;;3.75;1.98;;;;;;;;;;4996719;28;20110;-80
2022/09/25 01:28:55;;;;;;;3.17;2.38;;;;;;;;;;5015244;28;20064;-80
2022/09/25 01:31:30;;;;;;;3.83;2.30;;;;;;;;;;5030567;28;20029;-80
2022/09/25 01:33:59;;;;;;;3.78;2.13;;;;;;;;;;4998018;28;20029;-80
2022/09/25 01:36:27;;;;;;;5.03;2.33;;;;;;;;;;4997397;28;20116;-80
2022/09/25 01:38:56;;;;;;;3.88;2.50;;;;;;;;;;4981514;28;20069;-80
2022/09/25 01:41:34;;;;;;;3.38;2.10;;;;;;;;;;4997380;28;20049;-80
2022/09/25 01:44:12;;;;;;;3.90;2.40;;;;;;;;;;5013703;28;20143;-80
2022/09/25 01:46:46;;;;;;;3.78;2.10;;;;;;;;;;4997275;28;20037;-80
2022/09/25 01:49:18;;;;;;;3.67;2.10;;;;;;;;;;5034516;28;20070;-80
2022/09/25 01:51:51;;;;;;;3.80;2.00;;;;;;;;;;5004749;28;20025;-80
2022/09/25 01:54:23;;;;;;;2.97;1.70;;;;;;;;;;5018103;28;20047;-80
2022/09/25 01:57:08;;;;;;;3.35;2.05;;;;;;;;;;5001225;28;20108;-80
2022/09/25 01:59:41;;;;;;;4.05;1.95;;;;;;;;;;5001127;28;20033;-80
2022/09/25 02:02:08;;;;;;;3.15;2.05;;;;;;;;;;4996960;28;20416;-80
2022/09/25 02:04:36;;;;;;;3.97;2.13;;;;;;;;;;4997451;28;20025;-79
2022/09/25 02:07:04;;;;;;;4.57;1.70;;;;;;;;;;4997585;28;20148;-80
2022/09/25 02:09:41;;;;;;;4.28;1.95;;;;;;;;;;4997040;28;20029;-80
2022/09/25 02:12:10;;;;;;;4.53;2.05;;;;;;;;;;5013252;28;20030;-80
2022/09/25 02:14:38;;;;;;;3.38;1.75;;;;;;;;;;4997347;28;20504;-80
2022/09/25 02:17:06;;;;;;;3.72;1.98;;;;;;;;;;4981395;28;20029;-81
2022/09/25 02:22:21;;;;;;;2.85;1.52;;;;;;;;;;5002100;28;20031;-82
2022/09/25 02:25:17;;;;;;;3.72;1.45;;;;;;;;;;4980899;28;20029;-81
2022/09/25 02:27:42;;;;;;;4.93;1.88;;;;;;;;;;5013593;28;20038;-82
2022/09/25 02:30:10;;;;;;;3.60;2.00;;;;;;;;;;4997187;28;20080;-82
2022/09/25 02:32:35;;;;;;;3.45;2.10;;;;;;;;;;4997411;28;20101;-82
2022/09/25 02:35:01;;;;;;;3.10;1.65;;;;;;;;;;4996881;28;20041;-82
2022/09/25 02:37:26;;;;;;;2.78;1.45;;;;;;;;;;4996883;28;20030;-81
2022/09/25 02:39:54;;;;;;;3.42;1.73;;;;;;;;;;4984146;28;20040;-82
2022/09/25 02:42:46;;;;;;;3.53;1.85;;;;;;;;;;4984347;28;20021;-82
2022/09/25 02:45:21;;;;;;;3.60;1.98;;;;;;;;;;5001363;28;20120;-82
2022/09/25 02:48:12;;;;;;;5.40;1.90;;;;;;;;;;5011357;28;20073;-81
2022/09/25 02:50:50;;;;;;;3.22;1.75;;;;;;;;;;5007891;28;20032;-82
2022/09/25 02:53:40;;;;;;;3.65;1.70;;;;;;;;;;5039507;28;20032;-81
2022/09/25 02:56:31;;;;;;;2.38;1.17;;;;;;;;;;5003408;28;20052;-81
2022/09/25 02:59:00;;;;;;;3.20;1.58;;;;;;;;;;4984638;28;20147;-82
2022/09/25 03:01:26;;;;;;;3.70;1.55;;;;;;;;;;5009469;28;20103;-82
2022/09/25 03:03:53;;;;;;;2.13;1.00;;;;;;;;;;5003184;28;20040;-81
2022/09/25 03:06:19;;;;;;;2.85;1.33;;;;;;;;;;5003322;28;20028;-81
2022/09/25 03:08:48;;;;;;;3.95;1.50;;;;;;;;;;5003404;28;20150;-81
2022/09/25 03:11:15;;;;;;;3.22;1.45;;;;;;;;;;5020364;28;20036;-82
2022/09/25 03:13:41;;;;;;;2.47;1.40;;;;;;;;;;5003263;28;20136;-82
2022/09/25 03:16:09;;;;;;;2.53;1.40;;;;;;;;;;5019698;28;20522;-81
2022/09/25 03:18:35;;;;;;;2.55;1.30;;;;;;;;;;5036152;28;20028;-82
2022/09/25 03:21:03;;;;;;;2.17;1.20;;;;;;;;;;5003080;28;20439;-81
2022/09/25 03:23:28;;;;;;;2.30;1.17;;;;;;;;;;5003471;28;20029;-81
2022/09/25 03:25:54;;;;;;;2.40;1.33;;;;;;;;;;5003332;28;20051;-81
2022/09/25 03:28:19;;;;;;;3.47;1.17;;;;;;;;;;5019486;28;20024;-81
2022/09/25 03:30:54;;;;;;;2.80;1.05;;;;;;;;;;5002995;28;20518;-81
2022/09/25 03:33:19;;;;;;;2.58;1.30;;;;;;;;;;5002939;28;20060;-81
2022/09/25 03:35:45;;;;;;;3.13;1.35;;;;;;;;;;5002617;28;20471;-82
2022/09/25 03:38:11;;;;;;;2.40;1.38;;;;;;;;;;5019019;28;20403;-82
2022/09/25 03:40:36;;;;;;;3.20;1.63;;;;;;;;;;5002765;28;20503;-82
2022/09/25 03:43:02;;;;;;;2.55;1.13;;;;;;;;;;5018622;28;20029;-82
2022/09/25 03:45:27;;;;;;;2.45;1.17;;;;;;;;;;5003077;28;20099;-81
2022/09/25 03:47:53;;;;;;;3.10;1.30;;;;;;;;;;5010339;28;20036;-81
2022/09/25 03:50:18;;;;;;;2.00;1.02;;;;;;;;;;5005547;28;20436;-81
2022/09/25 03:52:44;;;;;;;2.20;1.30;;;;;;;;;;5021985;28;20056;-81
2022/09/25 03:55:10;;;;;;;3.20;1.48;;;;;;;;;;5009598;28;20117;-81
2022/09/25 03:57:36;;;;;;;2.97;1.55;;;;;;;;;;4983085;28;20041;-81
2022/09/25 04:00:02;;;;;;;1.65;0.77;;;;;;;;;;4982608;28;20033;-81
2022/09/25 04:02:28;;;;;;;1.52;0.90;;;;;;;;;;5016287;28;20017;-81
2022/09/25 04:04:54;;;;;;;3.72;1.10;;;;;;;;;;5002230;28;20542;-80
2022/09/25 04:07:23;;;;;;;2.90;1.40;;;;;;;;;;5019186;28;20107;-80
2022/09/25 04:09:49;;;;;;;2.25;1.00;;;;;;;;;;5002869;28;20067;-80
2022/09/25 04:12:15;;;;;;;2.13;0.90;;;;;;;;;;5001787;28;20114;-80
2022/09/25 04:14:44;;;;;;;2.42;1.38;;;;;;;;;;5018248;28;20025;-80
2022/09/25 04:17:09;;;;;;;2.60;1.23;;;;;;;;;;5035418;28;20048;-80
2022/09/25 04:19:35;;;;;;;2.13;0.82;;;;;;;;;;5002053;28;20471;-80
2022/09/25 04:22:00;;;;;;;3.08;1.15;;;;;;;;;;5034616;28;20041;-80
2022/09/25 04:27:10;;;;;;;1.77;0.80;;;;;;;;;;5023447;28;20052;-80
2022/09/25 04:29:36;;;;;;;2.67;0.95;;;;;;;;;;5018442;28;20028;-80
2022/09/25 04:34:46;;;;;;;1.83;1.10;;;;;;;;;;5020197;28;20021;-79
2022/09/25 04:37:12;;;;;;;1.73;0.95;;;;;;;;;;5018010;28;20044;-79
2022/09/25 04:39:38;;;;;;;2.08;1.02;;;;;;;;;;5002045;28;20056;-79
2022/09/25 04:42:04;;;;;;;2.58;1.00;;;;;;;;;;5001293;28;20061;-79
2022/09/25 04:44:29;;;;;;;3.05;1.17;;;;;;;;;;5018118;28;20044;-80
2022/09/25 04:46:56;;;;;;;2.55;1.13;;;;;;;;;;4985590;28;20045;-80
2022/09/25 04:49:21;;;;;;;2.33;1.17;;;;;;;;;;5017875;28;20108;-80
2022/09/25 04:51:46;;;;;;;2.05;0.90;;;;;;;;;;5001333;28;20502;-80
2022/09/25 04:54:13;;;;;;;2.45;0.80;;;;;;;;;;5017468;28;20390;-80
2022/09/25 04:56:39;;;;;;;1.77;0.70;;;;;;;;;;5018213;28;20033;-80
2022/09/25 04:59:04;;;;;;;2.03;1.17;;;;;;;;;;5001349;28;20054;-79
2022/09/25 05:01:30;;;;;;;2.30;1.20;;;;;;;;;;5004055;28;20029;-79
2022/09/25 05:03:55;;;;;;;2.60;1.02;;;;;;;;;;4997776;28;20033;-80
2022/09/25 05:06:21;;;;;;;2.20;1.30;;;;;;;;;;4997566;28;20377;-80
2022/09/25 05:08:48;;;;;;;2.22;0.63;;;;;;;;;;4997679;28;20395;-79
2022/09/25 05:11:13;;;;;;;2.20;1.02;;;;;;;;;;4997987;28;20033;-80
2022/09/25 05:13:39;;;;;;;1.95;0.88;;;;;;;;;;5014160;28;20060;-80
2022/09/25 05:16:05;;;;;;;2.40;0.80;;;;;;;;;;4997553;28;20069;-79
2022/09/25 05:18:32;;;;;;;2.42;0.90;;;;;;;;;;4998049;28;20030;-79
2022/09/25 05:21:01;;;;;;;1.95;0.90;;;;;;;;;;4997875;28;20037;-80
2022/09/25 05:23:26;;;;;;;2.55;0.93;;;;;;;;;;5021732;28;20397;-80
2022/09/25 05:25:57;;;;;;;1.90;0.90;;;;;;;;;;5010866;28;20021;-80
2022/09/25 05:28:23;;;;;;;3.25;1.10;;;;;;;;;;5009552;28;20606;-81
2022/09/25 05:30:49;;;;;;;1.25;0.65;;;;;;;;;;5024954;28;20028;-80
2022/09/25 05:33:14;;;;;;;2.22;1.00;;;;;;;;;;5018619;28;20028;-80
2022/09/25 05:35:39;;;;;;;2.42;1.00;;;;;;;;;;5017659;28;20122;-81
2022/09/25 05:38:07;;;;;;;2.03;0.95;;;;;;;;;;5008558;28;20044;-80
2022/09/25 05:40:33;;;;;;;1.67;0.77;;;;;;;;;;5030315;28;20037;-81
2022/09/25 05:42:58;;;;;;;2.78;0.82;;;;;;;;;;5017238;28;20056;-80
2022/09/25 05:45:24;;;;;;;1.63;0.82;;;;;;;;;;5024874;28;20117;-80
2022/09/25 05:47:59;;;;;;;1.90;0.98;;;;;;;;;;5027164;28;20111;-80
2022/09/25 05:50:25;;;;;;;2.83;1.00;;;;;;;;;;5024823;28;20028;-81
2022/09/25 05:52:58;;;;;;;2.22;0.90;;;;;;;;;;5051334;28;20132;-79
2022/09/25 05:55:24;;;;;;;1.65;0.93;;;;;;;;;;5016389;28;20070;-81
2022/09/25 05:57:49;;;;;;;3.35;0.90;;;;;;;;;;5027167;28;20082;-80
2022/09/25 06:00:15;;;;;;;2.47;0.80;;;;;;;;;;5024998;28;20041;-80
2022/09/25 06:02:40;;;;;;;2.00;1.20;;;;;;;;;;5009785;28;20842;-80
2022/09/25 06:05:07;;;;;;;2.17;1.05;;;;;;;;;;5009540;28;20032;-80
2022/09/25 06:07:33;;;;;;;4.00;1.15;;;;;;;;;;5022568;28;20028;-80
2022/09/25 06:09:59;;;;;;;2.80;1.00;;;;;;;;;;5009289;28;20032;-80
2022/09/25 06:12:27;;;;;;;2.25;0.80;;;;;;;;;;5035766;28;20107;-80
2022/09/25 06:14:53;;;;;;;3.75;0.80;;;;;;;;;;5028166;28;20029;-80
2022/09/25 06:17:18;;;;;;;3.83;0.90;;;;;;;;;;5013515;28;20073;-80
2022/09/25 06:19:44;;;;;;;1.58;0.68;;;;;;;;;;5038614;28;20164;-80
2022/09/25 06:22:09;;;;;;;2.25;0.80;;;;;;;;;;5011458;28;20395;-79
2022/09/25 06:24:35;;;;;;;2.17;0.90;;;;;;;;;;5013251;28;20441;-80
2022/09/25 06:27:00;;;;;;;2.83;0.90;;;;;;;;;;5035046;28;20508;-80
2022/09/25 06:29:25;;;;;;;1.20;0.60;;;;;;;;;;5023553;28;20429;-79
2022/09/25 06:31:51;;;;;;;2.45;0.77;;;;;;;;;;5023520;28;20437;-80
2022/09/25 06:34:18;;;;;;;2.25;0.50;;;;;;;;;;5040014;28;20028;-81
2022/09/25 06:36:44;;;;;;;2.60;1.13;;;;;;;;;;5023461;28;20021;-80
2022/09/25 06:39:10;;;;;;;3.00;0.93;;;;;;;;;;5039915;28;20047;-81
2022/09/25 06:41:35;;;;;;;2.90;1.15;;;;;;;;;;5007032;28;20024;-81
2022/09/25 06:44:02;;;;;;;3.05;1.30;;;;;;;;;;5026683;28;20421;-80
2022/09/25 06:46:27;;;;;;;4.22;1.80;;;;;;;;;;5040033;28;20036;-79
2022/09/25 06:48:53;;;;;;;5.25;2.20;;;;;;;;;;5023581;28;20083;-81
2022/09/25 06:51:20;;;;;;;9.07;2.58;;;;;;;;;;5023364;28;20085;-80
2022/09/25 06:53:45;;;;;;;7.13;2.50;;;;;;;;;;5039520;28;20545;-80
2022/09/25 06:56:11;;;;;;;11.13;4.45;;;;;;;;;;5038905;28;20033;-80
2022/09/25 06:58:36;;;;;;;19.55;7.95;;;;;;;;;;5019788;28;20380;-80
2022/09/25 07:01:02;;;;;;;21.88;10.18;;;;;;;;;;5019686;28;20052;-80
2022/09/25 07:03:46;;;;;;;25.55;11.25;;;;;;;;;;4987110;28;20407;-80
2022/09/25 07:06:20;;;;;;;28.05;12.85;;;;;;;;;;5008729;28;20479;-80
2022/09/25 07:08:47;;;;;;;24.33;11.40;;;;;;;;;;4988489;28;20043;-80
2022/09/25 07:11:20;;;;;;;23.00;11.15;;;;;;;;;;5019711;28;20368;-81
2022/09/25 07:13:46;;;;;;;30.73;12.43;;;;;;;;;;5019226;28;20047;-80
2022/09/25 07:16:13;;;;;;;28.27;12.00;;;;;;;;;;5003495;28;20115;-81
2022/09/25 07:18:38;;;;;;;26.58;11.32;;;;;;;;;;5019700;28;20028;-81
2022/09/25 07:21:12;;;;;;;25.48;11.45;;;;;;;;;;5019934;28;20059;-81
2022/09/25 07:23:37;;;;;;;27.73;12.23;;;;;;;;;;5035742;28;20557;-79
2022/09/25 07:26:09;;;;;;;25.63;11.82;;;;;;;;;;5003471;28;20029;-80
2022/09/25 07:28:35;;;;;;;33.88;13.27;;;;;;;;;;5002751;28;20032;-79
2022/09/25 07:31:18;;;;;;;37.78;13.88;;;;;;;;;;5003280;28;20029;-79
2022/09/25 07:33:43;;;;;;;33.15;12.93;;;;;;;;;;5003043;28;20040;-79
2022/09/25 07:36:10;;;;;;;28.42;12.13;;;;;;;;;;5003078;28;20025;-79
2022/09/25 07:38:36;;;;;;;28.98;12.60;;;;;;;;;;5019419;28;20041;-80
2022/09/25 07:41:04;;;;;;;30.15;12.82;;;;;;;;;;5019373;28;20214;-80
2022/09/25 07:43:30;;;;;;;24.88;12.13;;;;;;;;;;5002919;28;20052;-80
2022/09/25 07:45:56;;;;;;;26.33;11.98;;;;;;;;;;5019125;28;20124;-80
2022/09/25 07:48:22;;;;;;;24.38;10.30;;;;;;;;;;4999327;28;20132;-80
2022/09/25 07:50:48;;;;;;;25.70;10.73;;;;;;;;;;4999739;28;20388;-80
2022/09/25 07:53:17;;;;;;;21.10;9.60;;;;;;;;;;4999356;28;20045;-80
2022/09/25 07:55:44;;;;;;;20.10;8.90;;;;;;;;;;5009699;28;20060;-80
2022/09/25 07:58:10;;;;;;;20.75;9.85;;;;;;;;;;4999669;28;20180;-81
2022/09/25 08:00:36;;;;;;;22.73;10.15;;;;;;;;;;4985335;28;20029;-79
2022/09/25 08:03:01;;;;;;;25.98;9.43;;;;;;;;;;5018307;28;20388;-82
2022/09/25 08:05:27;;;;;;;25.08;10.80;;;;;;;;;;5018310;28;20401;-79
2022/09/25 08:07:53;;;;;;;19.58;10.02;;;;;;;;;;5002371;28;20173;-79
2022/09/25 08:10:18;;;;;;;19.15;9.82;;;;;;;;;;5018478;28;20025;-79
2022/09/25 08:12:44;;;;;;;20.75;10.05;;;;;;;;;;4985810;28;20061;-79
2022/09/25 08:15:09;;;;;;;27.45;10.85;;;;;;;;;;5018551;28;20107;-78
2022/09/25 08:17:35;;;;;;;25.88;9.90;;;;;;;;;;5018571;28;20116;-79
2022/09/25 08:20:01;;;;;;;26.13;10.45;;;;;;;;;;5001907;28;20043;-79
2022/09/25 08:22:26;;;;;;;24.80;9.95;;;;;;;;;;5001861;28;20517;-79
2022/09/25 08:24:52;;;;;;;20.58;8.65;;;;;;;;;;5018193;28;20029;-80
2022/09/25 08:27:17;;;;;;;25.15;9.98;;;;;;;;;;5002192;28;20376;-79
2022/09/25 08:29:43;;;;;;;25.50;9.82;;;;;;;;;;5018156;28;20075;-80
2022/09/25 08:32:08;;;;;;;19.17;8.60;;;;;;;;;;5018075;28;20052;-79
2022/09/25 08:34:35;;;;;;;19.63;9.07;;;;;;;;;;5017887;28;20021;-79
2022/09/25 08:37:00;;;;;;;27.25;8.20;;;;;;;;;;5001302;28;20039;-79
2022/09/25 08:39:26;;;;;;;17.92;7.70;;;;;;;;;;5017727;28;20108;-79
2022/09/25 08:41:52;;;;;;;18.75;8.00;;;;;;;;;;5018377;28;20403;-79
2022/09/25 08:44:37;;;;;;;16.23;7.13;;;;;;;;;;5018517;28;20033;-78
2022/09/25 08:50:33;;;;;;;17.00;7.30;;;;;;;;;;5042952;28;20107;-79
2022/09/25 08:53:04;;;;;;;18.10;8.88;;;;;;;;;;5024578;28;20433;-80
2022/09/25 08:58:30;;;;;;;20.13;10.43;;;;;;;;;;4986916;28;20056;-80
2022/09/25 09:01:16;;;;;;;25.48;11.68;;;;;;;;;;4986826;28;20025;-80
2022/09/25 09:03:54;;;;;;;19.08;10.48;;;;;;;;;;4984840;28;20047;-80
2022/09/25 09:06:19;;;;;;;21.85;11.48;;;;;;;;;;5001743;28;20041;-80
2022/09/25 09:08:52;;;;;;;19.35;9.73;;;;;;;;;;5000359;28;20037;-81
2022/09/25 09:11:21;;;;;;;19.58;9.30;;;;;;;;;;5017294;28;20025;-81
2022/09/25 09:14:14;;;;;;;21.23;10.50;;;;;;;;;;5001090;28;20091;-81
2022/09/25 09:16:51;;;;;;;22.55;9.15;;;;;;;;;;5020075;28;20044;-80
2022/09/25 09:19:16;;;;;;;18.08;8.40;;;;;;;;;;5017676;28;20072;-79
2022/09/25 09:21:59;;;;;;;15.35;8.35;;;;;;;;;;5017279;28;20036;-80
2022/09/25 09:24:49;;;;;;;15.10;7.97;;;;;;;;;;5001385;28;20051;-79
2022/09/25 09:27:55;;;;;;;17.70;7.65;;;;;;;;;;5019221;28;20025;-80
2022/09/25 09:30:22;;;;;;;18.02;7.65;;;;;;;;;;5016679;28;20037;-80
2022/09/25 09:33:37;;;;;;;13.57;7.45;;;;;;;;;;5000786;28;20021;-80
2022/09/25 09:36:26;;;;;;;14.52;7.35;;;;;;;;;;4970266;28;20564;-80
2022/09/25 09:39:09;;;;;;;19.00;7.45;;;;;;;;;;4954223;28;20035;-80
2022/09/25 09:41:50;;;;;;;13.85;6.97;;;;;;;;;;5035865;28;20506;-81
2022/09/25 09:45:00;;;;;;;16.27;6.80;;;;;;;;;;5017024;28;20119;-80
2022/09/25 09:47:38;;;;;;;16.20;6.60;;;;;;;;;;4969152;28;20080;-80
2022/09/25 09:50:25;;;;;;;16.23;7.20;;;;;;;;;;4978336;28;20087;-80
2022/09/25 09:53:00;;;;;;;21.48;6.85;;;;;;;;;;4982068;28;20044;-80
2022/09/25 09:55:40;;;;;;;17.63;6.32;;;;;;;;;;5004974;28;20032;-80
2022/09/25 09:58:12;;;;;;;16.98;5.65;;;;;;;;;;4996762;28;20125;-79
2022/09/25 10:00:38;;;;;;;14.45;5.97;;;;;;;;;;4999322;28;20068;-80
2022/09/25 10:03:28;;;;;;;12.32;6.07;;;;;;;;;;5016524;28;20033;-80
2022/09/25 10:06:01;;;;;;;15.55;6.82;;;;;;;;;;5033240;28;20036;-80
2022/09/25 10:08:27;;;;;;;10.18;5.15;;;;;;;;;;5016892;28;20048;-80
2022/09/25 10:10:53;;;;;;;12.13;5.53;;;;;;;;;;5017031;28;20037;-80
2022/09/25 10:13:24;;;;;;;11.23;5.95;;;;;;;;;;5016595;28;20103;-80
2022/09/25 10:16:03;;;;;;;13.75;5.53;;;;;;;;;;5017121;28;20033;-80
2022/09/25 10:18:40;;;;;;;13.77;5.43;;;;;;;;;;5001124;28;20075;-80
2022/09/25 10:21:17;;;;;;;10.60;5.38;;;;;;;;;;5017403;28;20033;-80
2022/09/25 10:23:45;;;;;;;14.82;5.97;;;;;;;;;;5016587;28;20490;-80
2022/09/25 10:26:36;;;;;;;11.15;5.05;;;;;;;;;;5016896;28;20025;-80
2022/09/25 10:29:20;;;;;;;10.00;5.38;;;;;;;;;;5000533;28;20036;-80
2022/09/25 10:31:46;;;;;;;14.73;5.20;;;;;;;;;;5033063;28;20040;-80
2022/09/25 10:34:11;;;;;;;13.00;5.60;;;;;;;;;;5016899;28;20151;-80
2022/09/25 10:36:44;;;;;;;11.52;4.68;;;;;;;;;;5050808;28;20033;-80
2022/09/25 10:39:31;;;;;;;8.82;5.03;;;;;;;;;;5017588;28;20029;-80
2022/09/25 10:41:58;;;;;;;11.30;4.70;;;;;;;;;;5050216;28;20025;-80
2022/09/25 10:44:34;;;;;;;10.63;4.78;;;;;;;;;;5016747;28;20033;-79
2022/09/25 10:50:21;;;;;;;11.48;4.60;;;;;;;;;;5070682;28;20029;-80
2022/09/25 10:52:52;;;;;;;7.95;4.68;;;;;;;;;;5019959;28;20040;-79
2022/09/25 10:55:29;;;;;;;12.30;4.65;;;;;;;;;;5022735;28;20028;-79
2022/09/25 10:58:09;;;;;;;10.38;4.68;;;;;;;;;;4980886;28;20045;-79
2022/09/25 11:00:53;;;;;;;9.02;4.20;;;;;;;;;;5018355;28;20025;-80
2022/09/25 11:03:24;;;;;;;10.20;4.80;;;;;;;;;;5034087;28;20499;-80
2022/09/25 11:05:55;;;;;;;10.90;5.22;;;;;;;;;;5000102;28;20076;-80
2022/09/25 11:08:24;;;;;;;8.07;3.70;;;;;;;;;;5000042;28;20033;-80
2022/09/25 11:10:56;;;;;;;8.00;4.25;;;;;;;;;;4984296;28;20026;-80
2022/09/25 11:13:23;;;;;;;9.68;4.43;;;;;;;;;;4999609;28;20060;-80
2022/09/25 11:15:52;;;;;;;7.25;3.75;;;;;;;;;;4984266;28;20113;-80
2022/09/25 11:18:50;;;;;;;6.90;4.05;;;;;;;;;;4984381;28;20041;-80
2022/09/25 11:21:27;;;;;;;8.70;5.10;;;;;;;;;;4994598;28;20048;-80
2022/09/25 11:24:19;;;;;;;7.90;4.35;;;;;;;;;;4999605;28;20057;-79
2022/09/25 11:26:50;;;;;;;9.50;3.63;;;;;;;;;;4999921;28;20161;-80
2022/09/25 11:29:20;;;;;;;8.55;4.05;;;;;;;;;;4999953;28;20033;-79
2022/09/25 11:32:00;;;;;;;8.25;4.60;;;;;;;;;;5016514;28;20030;-79
2022/09/25 11:34:38;;;;;;;8.32;3.95;;;;;;;;;;4983755;28;20040;-80
2022/09/25 11:37:23;;;;;;;10.05;4.63;;;;;;;;;;4983781;28;20025;-79
2022/09/25 11:43:05;;;;;;;7.15;3.35;;;;;;;;;;5019793;28;20048;-80
2022/09/25 11:45:53;;;;;;;8.18;3.75;;;;;;;;;;4983380;28;20122;-80
2022/09/25 11:48:39;;;;;;;8.20;4.72;;;;;;;;;;5009950;28;20028;-80
2022/09/25 11:51:04;;;;;;;8.02;4.32;;;;;;;;;;5004869;28;20557;-80
2022/09/25 11:53:39;;;;;;;7.25;3.97;;;;;;;;;;5035227;28;20068;-79
2022/09/25 11:56:13;;;;;;;9.88;4.80;;;;;;;;;;5053368;28;20112;-79
2022/09/25 11:58:55;;;;;;;7.43;3.92;;;;;;;;;;5018553;28;20125;-79
2022/09/25 12:01:47;;;;;;;8.93;4.45;;;;;;;;;;5017076;28;20028;-79
2022/09/25 12:04:32;;;;;;;8.00;3.92;;;;;;;;;;5018140;28;20033;-79
2022/09/25 12:07:21;;;;;;;10.30;3.90;;;;;;;;;;5036016;28;20033;-80
2022/09/25 12:10:06;;;;;;;6.22;3.40;;;;;;;;;;5052322;28;20040;-79
2022/09/25 12:13:03;;;;;;;10.13;3.85;;;;;;;;;;5018234;28;20593;-79
2022/09/25 12:15:35;;;;;;;6.63;3.72;;;;;;;;;;5052969;28;20386;-79
2022/09/25 12:18:12;;;;;;;6.00;3.33;;;;;;;;;;5018475;28;20486;-80
2022/09/25 12:21:05;;;;;;;6.72;3.25;;;;;;;;;;5018834;28;20068;-80
2022/09/25 12:23:32;;;;;;;8.60;4.18;;;;;;;;;;5049684;28;20109;-80
2022/09/25 12:26:07;;;;;;;7.85;3.70;;;;;;;;;;5018287;28;20084;-79
2022/09/25 12:28:54;;;;;;;6.50;3.28;;;;;;;;;;5052468;28;20523;-79
2022/09/25 12:31:22;;;;;;;8.85;3.70;;;;;;;;;;5034192;28;20447;-79
2022/09/25 12:34:17;;;;;;;6.50;3.35;;;;;;;;;;5035129;28;20099;-80
2022/09/25 12:37:19;;;;;;;6.13;2.97;;;;;;;;;;5030923;28;20144;-79
2022/09/25 12:39:48;;;;;;;7.05;3.47;;;;;;;;;;5040447;28;20041;-79
2022/09/25 12:42:22;;;;;;;6.97;3.40;;;;;;;;;;5018140;28;20043;-79
2022/09/25 12:44:59;;;;;;;6.80;3.53;;;;;;;;;;5035228;28;20036;-79
2022/09/25 12:47:39;;;;;;;7.75;3.70;;;;;;;;;;5005138;28;20029;-79
2022/09/25 12:50:12;;;;;;;6.88;2.92;;;;;;;;;;5021633;28;20036;-78
2022/09/25 12:52:50;;;;;;;6.88;3.10;;;;;;;;;;5021602;28;20028;-79
2022/09/25 12:55:19;;;;;;;4.70;2.45;;;;;;;;;;5008739;28;20025;-79
2022/09/25 12:57:47;;;;;;;5.40;2.90;;;;;;;;;;5015081;28;20147;-79
2022/09/25 13:00:19;;;;;;;6.60;2.80;;;;;;;;;;5014782;28;20479;-79
2022/09/25 13:03:07;;;;;;;7.50;3.35;;;;;;;;;;5033806;28;20549;-78
2022/09/25 13:05:43;;;;;;;6.07;3.20;;;;;;;;;;5033984;28;20498;-78
2022/09/25 13:08:22;;;;;;;5.13;2.60;;;;;;;;;;5018900;28;20041;-79
2022/09/25 13:10:57;;;;;;;5.43;2.45;;;;;;;;;;5034366;28;20032;-79
2022/09/25 13:13:25;;;;;;;5.80;3.00;;;;;;;;;;5001082;28;20506;-79
2022/09/25 13:15:56;;;;;;;6.57;3.13;;;;;;;;;;5001066;28;20113;-78
2022/09/25 13:18:23;;;;;;;6.37;2.70;;;;;;;;;;5034190;28;20052;-79
2022/09/25 13:20:50;;;;;;;5.85;2.80;;;;;;;;;;5017679;28;20040;-79
2022/09/25 13:23:32;;;;;;;5.68;2.92;;;;;;;;;;5017025;28;20052;-79
2022/09/25 13:26:09;;;;;;;4.53;2.47;;;;;;;;;;5001992;28;20056;-79
2022/09/25 13:28:36;;;;;;;5.63;2.92;;;;;;;;;;5001433;28;20033;-79
2022/09/25 13:31:06;;;;;;;4.65;2.72;;;;;;;;;;5000591;28;20403;-79
2022/09/25 13:33:44;;;;;;;8.75;3.08;;;;;;;;;;5034148;28;20048;-79
2022/09/25 13:36:29;;;;;;;5.63;2.17;;;;;;;;;;5017536;28;20028;-79
2022/09/25 13:42:03;;;;;;;5.03;2.70;;;;;;;;;;5019033;28;20029;-79
2022/09/25 13:44:43;;;;;;;4.07;2.30;;;;;;;;;;5033898;28;20032;-78
2022/09/25 13:47:23;;;;;;;4.70;2.17;;;;;;;;;;5052987;28;20059;-78
2022/09/25 13:49:53;;;;;;;4.65;2.03;;;;;;;;;;5071332;28;20567;-79
2022/09/25 13:53:15;;;;;;;5.63;2.25;;;;;;;;;;5037262;28;20056;-79
2022/09/25 13:55:34;;;;;;;5.40;2.25;;;;;;;;;;5026350;28;20029;-78
2022/09/25 13:58:00;;;;;;;3.22;1.63;;;;;;;;;;4997578;28;20040;-79
2022/09/25 14:00:27;;;;;;;4.68;2.08;;;;;;;;;;5014517;28;20029;-78
2022/09/25 14:02:59;;;;;;;3.67;1.95;;;;;;;;;;5029658;28;20038;-79
2022/09/25 14:05:26;;;;;;;6.50;2.15;;;;;;;;;;5030334;28;20025;-79
2022/09/25 14:07:59;;;;;;;3.53;1.98;;;;;;;;;;5030040;28;20480;-79
2022/09/25 14:10:24;;;;;;;3.55;1.88;;;;;;;;;;5029645;28;20025;-79
2022/09/25 14:12:50;;;;;;;3.78;1.85;;;;;;;;;;5029354;28;20057;-79
2022/09/25 14:15:21;;;;;;;4.05;1.75;;;;;;;;;;4997439;28;20068;-78
2022/09/25 14:17:49;;;;;;;3.85;1.95;;;;;;;;;;5013388;28;20048;-79
2022/09/25 14:20:32;;;;;;;4.35;1.55;;;;;;;;;;5014130;28;20546;-79
2022/09/25 14:23:00;;;;;;;2.30;1.27;;;;;;;;;;5012127;28;20047;-79
2022/09/25 14:25:27;;;;;;;4.45;1.70;;;;;;;;;;5028869;28;20029;-79
2022/09/25 14:27:52;;;;;;;3.00;1.30;;;;;;;;;;5030661;28;20112;-78
2022/09/25 14:30:18;;;;;;;4.03;1.60;;;;;;;;;;4997217;28;20029;-78
2022/09/25 14:33:00;;;;;;;4.90;1.60;;;;;;;;;;4996782;28;20030;-79
2022/09/25 14:35:34;;;;;;;4.15;1.50;;;;;;;;;;5000557;28;20091;-79
2022/09/25 14:38:15;;;;;;;7.00;1.80;;;;;;;;;;5034659;28;20162;-79
2022/09/25 14:41:20;;;;;;;3.45;1.52;;;;;;;;;;5041809;28;20035;-78
2022/09/25 14:44:16;;;;;;;3.97;1.70;;;;;;;;;;5019396;28;20037;-79
2022/09/25 14:46:42;;;;;;;3.92;1.80;;;;;;;;;;5037059;28;20479;-79
2022/09/25 14:49:22;;;;;;;3.72;1.30;;;;;;;;;;5021436;28;20058;-78
2022/09/25 14:51:49;;;;;;;4.15;1.40;;;;;;;;;;5056667;28;20029;-79
2022/09/25 14:54:20;;;;;;;3.95;1.48;;;;;;;;;;5021846;28;20032;-78
2022/09/25 14:56:49;;;;;;;2.85;1.60;;;;;;;;;;5019920;28;20025;-79
2022/09/25 14:59:39;;;;;;;3.55;1.13;;;;;;;;;;5020213;28;20047;-79
2022/09/25 15:02:11;;;;;;;3.80;1.70;;;;;;;;;;5036424;28;20033;-79
2022/09/25 15:04:37;;;;;;;2.88;1.30;;;;;;;;;;5003449;28;20553;-78
2022/09/25 15:07:15;;;;;;;3.03;1.35;;;;;;;;;;5020275;28;20120;-79
2022/09/25 15:09:46;;;;;;;4.32;1.83;;;;;;;;;;5004173;28;20462;-79
2022/09/25 15:12:29;;;;;;;3.65;1.33;;;;;;;;;;5020845;28;20082;-79
2022/09/25 15:14:58;;;;;;;4.35;1.13;;;;;;;;;;5036302;28;20029;-79
2022/09/25 15:17:24;;;;;;;3.95;1.30;;;;;;;;;;5019677;28;20037;-79
2022/09/25 15:19:49;;;;;;;4.80;1.55;;;;;;;;;;5019621;28;20033;-79
2022/09/25 15:22:20;;;;;;;2.97;1.25;;;;;;;;;;5019535;28;20037;-79
2022/09/25 15:24:53;;;;;;;4.10;1.50;;;;;;;;;;5019785;28;20457;-80
2022/09/25 15:27:18;;;;;;;4.57;1.20;;;;;;;;;;5003872;28;20443;-79
2022/09/25 15:29:44;;;;;;;4.82;1.38;;;;;;;;;;5019600;28;20060;-79